Swaledale, Iowa
Current Conditions -  °F | °C
As of 4:53 PM on Friday 28 Nov 2014 (Local Time) from KMCW Reporting Station
Clear Clear  
Wind Chill: -8°   Ceiling: Unl
Heat Index: -3°   Visibility: 9mi
Dew Point: -6°   Wind: 9mph
Humidity: 84%   Direction: 130°SE
Pressure: 29.79"   Gusts: NA
Location:  42.98°N, 93.32°W
Report Text: KMCW 282253Z AUTO 13008KT 9SM CLR M03/M06 A2979 RMK AO2 SLP103 T10331056
Loading
Personal Weather Stations






























Interactive Weather Map New forecast layout! Learn more

10-Day Weather Forecast

Advertisements
Track Severe Weather on mobile